aviador You're here:

LFBH Decoded Metar

LA ROCHELLE/LALE in FRANCE
Report Time2017-10-20 12:00:00
UTC Time2017-10-20 12:32:41
Flight Rules vfr VFR
Wind200° at 09 kt
W.Decomp.*RWY 27: 3.2 kt HW 8.4 kt LCW
W.Rank200° ranks 32
Current wind is above 200° avg. (8.2)
Visibility9999 m
Phenomena:N/A
Clouds:Few 030 Hf
Expected CloudBase > 3,200 ft AGL from Temp-Dew spread
CeilingNone
Temp19°C (ISA +4)
Dew Point11°C (60% RH)
AAT16.1°C
QNH1016 hPa
Density Alt584 ft
Elevation33 ft
Report Wrong Elevation
Raw Report
LFBH 201200Z AUTO 20009KT 9999 FEW030 19/11 Q1016 NOSIG=

Extra information for LFBH:More info

Metar Taf Metar & Taf Last 4 Metars F.Rules Stats Wind Profile Meteogram Temp Stats Airport Information Weather charts Add Link Nearby VenuesMetar ALERT Operation Metar Decoded Social comments